Jordan Hwy 8

*Note: All times are displayed in the local standard time of the station location.
**Rain - Equipment is designed to accurately record liquid precipitation; under conditions when precipitation is not in liquid form, the data displayed may not properly reflect rainfall values.

Date Max Temp
(°C)
Min Temp
(°C)
Avg Temp
(°C)
Rain (mm) Avg RH (%)
Sat, Dec 08, 2018 0.1 -5.7 -2.9 0.0 72.4
Fri, Dec 07, 2018 -2.0 -4.6 -3.8 0.0 68.7
Thu, Dec 06, 2018 2.6 -2.3 0.1 1.2 78.6
Wed, Dec 05, 2018 1.4 -7.2 -2.6 0.0 76.7
Tue, Dec 04, 2018 0.1 -5.8 -2.1 0.0 75.3
Mon, Dec 03, 2018 8.0 0.0 3.1 0.4 77.9
Sun, Dec 02, 2018 14.9 1.9 7.9 4.6 87.2
DateTime Avg Temp (°C) Rain (mm) RH (%)
Sun, Dec 09, 2018 21:00 -2.8 0.0 77.3
Sun, Dec 09, 2018 20:00 -3.2 0.0 75.4
Sun, Dec 09, 2018 19:00 -2.3 0.0 71.3
Sun, Dec 09, 2018 18:00 -1.7 0.0 69.8
Sun, Dec 09, 2018 17:00 -0.6 0.0 66.5
Sun, Dec 09, 2018 16:00 0.6 0.0 65.0
Sun, Dec 09, 2018 15:00 1.0 0.0 64.2
Sun, Dec 09, 2018 14:00 1.3 0.0 63.2
Sun, Dec 09, 2018 13:00 1.1 0.0 64.8
Sun, Dec 09, 2018 12:00 0.8 0.0 65.3
Sun, Dec 09, 2018 11:00 -0.2 0.0 65.0
Sun, Dec 09, 2018 10:00 -2.1 0.0 69.3
Sun, Dec 09, 2018 09:00 -4.0 0.0 72.8
Sun, Dec 09, 2018 08:00 -6.4 0.0 77.5
Sun, Dec 09, 2018 07:00 -7.0 0.0 81.7
Sun, Dec 09, 2018 06:00 -7.1 0.0 83.8
Sun, Dec 09, 2018 05:00 -6.2 0.0 82.0
Sun, Dec 09, 2018 04:00 -5.2 0.0 77.8
Sun, Dec 09, 2018 03:00 -4.1 0.0 72.5
Sun, Dec 09, 2018 02:00 -3.0 0.0 71.1
Sun, Dec 09, 2018 01:00 -2.9 0.0 72.8
Sun, Dec 09, 2018 00:00 -2.8 0.0 73.9
Sat, Dec 08, 2018 23:00 -2.7 0.0 73.9
Sat, Dec 08, 2018 22:00 -2.7 0.0 72.9
Sat, Dec 08, 2018 21:00 -2.7 0.0 73.5
Sat, Dec 08, 2018 20:00 -2.7 0.0 74.2
Sat, Dec 08, 2018 19:00 -2.6 0.0 73.4
Sat, Dec 08, 2018 18:00 -2.5 0.0 72.5
Sat, Dec 08, 2018 17:00 -2.2 0.0 70.9
Sat, Dec 08, 2018 16:00 -1.3 0.0 65.5
Sat, Dec 08, 2018 15:00 -0.1 0.0 53.1
Sat, Dec 08, 2018 14:00 -0.2 0.0 52.2
Sat, Dec 08, 2018 13:00 -0.3 0.0 55.8
Sat, Dec 08, 2018 12:00 -1.3 0.0 62.5
Sat, Dec 08, 2018 11:00 -2.6 0.0 67.0
Sat, Dec 08, 2018 10:00 -4.1 0.0 69.1
Sat, Dec 08, 2018 09:00 -5.3 0.0 71.9
Sat, Dec 08, 2018 08:00 -5.5 0.0 72.2
Sat, Dec 08, 2018 07:00 -4.2 0.0 70.0
Sat, Dec 08, 2018 06:00 -3.5 0.0 73.5
Sat, Dec 08, 2018 05:00 -3.6 0.0 81.9
Sat, Dec 08, 2018 04:00 -4.4 0.0 91.4
Sat, Dec 08, 2018 03:00 -4.4 0.0 92.1
Sat, Dec 08, 2018 02:00 -4.6 0.0 91.7
Sat, Dec 08, 2018 01:00 -4.3 0.0 83.3
Sat, Dec 08, 2018 00:00 -3.7 0.0 71.6
Fri, Dec 07, 2018 23:00 -3.7 0.0 69.7
Fri, Dec 07, 2018 22:00 -3.9 0.0 70.4


asterix Register now to access more data! asterix